Miami, FL (33165)

12:07 AM EDT on July 29, 2016 (GMT -0400)
Olympia Heights, Blue Lake | | Change Station

Elev 26 ft 25.72 °N, 80.34 °W | Updated 1 minute ago

Scattered Clouds
Scattered Clouds
85.1 °F
Feels Like 106 °F
N
2.2
Wind Variable Wind from South

Today
High -- | Low -- °F
--% Chance of Precip.
Yesterday
High -- | Low -- °F
Precip. -- in
Pressure 30.05 in
Visibility 10.0 miles
Clouds Few 2000 ft
Scattered Clouds 25000 ft
Heat Index 106 °F
Dew Point 84 °F
Humidity 98%
Rainfall 0.00 in
Snow Depth Not available.
6:46 AM 8:08 PM
Waning Crescent, 26% visible
METAR KMIA 290353Z 12006KT 10SM FEW020 SCT250 29/25 A3005 RMK AO2 SLP176 T02890250
Pressure 30.05 in
Visibility 10.0 miles
Clouds Few 2000 ft
Scattered Clouds 25000 ft
Heat Index 106 °F
Dew Point 84 °F
Humidity 98%
Rainfall 0.00 in
Snow Depth Not available.
6:46 AM 8:08 PM
Waning Crescent, 26% visible
METAR KMIA 290353Z 12006KT 10SM FEW020 SCT250 29/25 A3005 RMK AO2 SLP176 T02890250

10-Day Weather Forecast

Almanac

Astronomy

Jul. 29, 2016 Rise Set
Actual Time
Civil Twilight
Nautical Twilight
Astronomical Twilight
Moon
Length of Visible Light
Length of Day
Tomorrow will be .
, % of the Moon is Illuminated

Today's Extremes

State Highs State Lows

Community

WunderPhotos

Upload Photos

1,928,292 photos uploaded!

WunderBlog® & News

Nearby

Air Quality

  Air Quality AQ Index Pollutant
Not available.

Snow Depth

Station Depth Elevation

Earthquake Activity

City Distance Mag. Time & Date
Minimum magnitude displayed is 2.5.

Coastal Water Temperatures

Place Temperature

Stations

Nearby Weather Stations

Station Location Temp. Windchill Dew Point Humidity Wind Precip. Elev Updated Type
                   

Watches & Warnings

There are currently no watches in effect.